Time;durP1;ratioP1;P1;durP2;ratioP2;P2;SDS_P1;SDS_P2;PMS_P1;PMS_P2;Temp;Humidity;BMP_temperature;BMP_pressure;BME280_temperature;BME280_humidity;BME280_pressure;Samples;Min_cycle;Max_cycle;Signal;HPM_P1;HPM_P2
2022/07/11 00:02:06;;;;;;;8.27;2.15;;;;;;;;;;5028672;28;20160;-68
2022/07/11 00:04:33;;;;;;;5.38;2.08;;;;;;;;;;5028297;28;20042;-67
2022/07/11 00:06:59;;;;;;;6.10;1.80;;;;;;;;;;5024285;28;20056;-69
2022/07/11 00:09:26;;;;;;;10.20;2.60;;;;;;;;;;5025498;28;20088;-65
2022/07/11 00:11:51;;;;;;;9.50;2.40;;;;;;;;;;5029453;28;20985;-67
2022/07/11 00:14:19;;;;;;;5.18;2.22;;;;;;;;;;5026294;28;20396;-67
2022/07/11 00:16:45;;;;;;;6.00;2.40;;;;;;;;;;5026818;28;20076;-66
2022/07/11 00:19:11;;;;;;;8.85;2.08;;;;;;;;;;5032014;28;20052;-66
2022/07/11 00:21:37;;;;;;;7.28;2.30;;;;;;;;;;5035584;28;20045;-68
2022/07/11 00:24:04;;;;;;;7.88;2.20;;;;;;;;;;5026622;28;20049;-68
2022/07/11 00:26:29;;;;;;;4.57;1.80;;;;;;;;;;5029506;28;20045;-66
2022/07/11 00:28:55;;;;;;;5.43;1.90;;;;;;;;;;5031921;28;20056;-66
2022/07/11 00:31:22;;;;;;;8.65;2.47;;;;;;;;;;5027250;28;20494;-66
2022/07/11 00:33:48;;;;;;;5.15;2.00;;;;;;;;;;5027008;28;20083;-66
2022/07/11 00:36:13;;;;;;;8.23;2.53;;;;;;;;;;5025918;28;20433;-67
2022/07/11 00:38:40;;;;;;;6.25;1.88;;;;;;;;;;5030255;28;20124;-66
2022/07/11 00:41:06;;;;;;;7.47;2.15;;;;;;;;;;5027243;28;20059;-67
2022/07/11 00:43:34;;;;;;;5.40;2.15;;;;;;;;;;5022999;28;20046;-69
2022/07/11 00:46:00;;;;;;;4.38;1.98;;;;;;;;;;5029096;28;20379;-67
2022/07/11 00:48:26;;;;;;;6.80;2.10;;;;;;;;;;5030213;28;20053;-67
2022/07/11 00:50:53;;;;;;;5.03;2.08;;;;;;;;;;5032981;28;20057;-67
2022/07/11 00:53:20;;;;;;;3.92;1.85;;;;;;;;;;5025632;28;20045;-67
2022/07/11 00:55:47;;;;;;;5.07;1.98;;;;;;;;;;5028297;28;20644;-66
2022/07/11 00:58:13;;;;;;;8.40;2.30;;;;;;;;;;5027861;28;20533;-67
2022/07/11 01:00:40;;;;;;;6.05;2.15;;;;;;;;;;5030756;28;20037;-67
2022/07/11 01:03:07;;;;;;;5.93;2.00;;;;;;;;;;5023789;28;20054;-65
2022/07/11 01:05:33;;;;;;;4.75;2.00;;;;;;;;;;5025858;28;20037;-69
2022/07/11 01:07:59;;;;;;;5.40;1.92;;;;;;;;;;5032465;28;20045;-68
2022/07/11 01:10:25;;;;;;;6.75;2.15;;;;;;;;;;5034923;28;20490;-67
2022/07/11 01:12:51;;;;;;;5.35;1.75;;;;;;;;;;5031087;28;20146;-67
2022/07/11 01:15:17;;;;;;;5.40;2.00;;;;;;;;;;5025371;28;20064;-67
2022/07/11 01:17:43;;;;;;;3.88;1.60;;;;;;;;;;5022780;28;20379;-67
2022/07/11 01:20:10;;;;;;;6.70;2.75;;;;;;;;;;5022256;28;20049;-66
2022/07/11 01:22:39;;;;;;;7.35;2.08;;;;;;;;;;5029079;28;20509;-67
2022/07/11 01:25:06;;;;;;;4.72;1.80;;;;;;;;;;5026280;28;20050;-66
2022/07/11 01:27:33;;;;;;;4.90;2.28;;;;;;;;;;5026571;28;20126;-68
2022/07/11 01:29:59;;;;;;;8.02;2.13;;;;;;;;;;5033466;28;20128;-67
2022/07/11 01:32:25;;;;;;;4.93;2.22;;;;;;;;;;5030428;28;20135;-65
2022/07/11 01:34:51;;;;;;;4.50;1.80;;;;;;;;;;5018949;28;20049;-66
2022/07/11 01:37:17;;;;;;;7.00;2.38;;;;;;;;;;5023627;28;20057;-67
2022/07/11 01:39:43;;;;;;;4.88;2.00;;;;;;;;;;5031203;28;20526;-66
2022/07/11 01:42:08;;;;;;;4.40;2.10;;;;;;;;;;5024931;28;20522;-66
2022/07/11 01:44:34;;;;;;;3.65;2.20;;;;;;;;;;5022204;28;20101;-67
2022/07/11 01:50:24;;;;;;;6.85;2.13;;;;;;;;;;5008207;28;20053;-68
2022/07/11 01:52:50;;;;;;;6.80;2.10;;;;;;;;;;5006342;28;20323;-68
2022/07/11 01:55:16;;;;;;;7.30;2.13;;;;;;;;;;5002222;28;20150;-67
2022/07/11 01:57:41;;;;;;;6.13;2.20;;;;;;;;;;5010200;28;20558;-66
2022/07/11 02:00:11;;;;;;;5.28;2.10;;;;;;;;;;5007958;28;20111;-68
2022/07/11 02:02:37;;;;;;;4.93;2.20;;;;;;;;;;5008107;28;20073;-64
2022/07/11 02:05:04;;;;;;;8.20;2.13;;;;;;;;;;5004601;28;20045;-67
2022/07/11 02:10:14;;;;;;;7.10;2.38;;;;;;;;;;5012030;28;20420;-65
2022/07/11 02:12:40;;;;;;;8.85;2.53;;;;;;;;;;5010745;28;20046;-65
2022/07/11 02:15:06;;;;;;;7.35;2.63;;;;;;;;;;5008346;28;20307;-66
2022/07/11 02:17:32;;;;;;;6.75;2.17;;;;;;;;;;5007180;28;20137;-65
2022/07/11 02:19:58;;;;;;;10.63;2.50;;;;;;;;;;5009395;28;20060;-65
2022/07/11 02:22:24;;;;;;;9.02;3.05;;;;;;;;;;5010730;28;20559;-65
2022/07/11 02:24:50;;;;;;;8.32;2.63;;;;;;;;;;5000028;28;21280;-65
2022/07/11 02:27:16;;;;;;;7.95;2.50;;;;;;;;;;5010978;28;20061;-65
2022/07/11 02:29:42;;;;;;;9.30;2.75;;;;;;;;;;5010957;28;20169;-65
2022/07/11 02:32:07;;;;;;;6.60;2.65;;;;;;;;;;5005582;28;20077;-66
2022/07/11 02:34:33;;;;;;;7.95;2.30;;;;;;;;;;5005225;28;20045;-64
2022/07/11 02:36:59;;;;;;;11.38;2.95;;;;;;;;;;5003464;28;20056;-65
2022/07/11 02:39:25;;;;;;;7.35;2.60;;;;;;;;;;5010227;28;20050;-66
2022/07/11 02:41:52;;;;;;;8.00;2.70;;;;;;;;;;5004902;28;20072;-66
2022/07/11 02:44:19;;;;;;;10.57;2.50;;;;;;;;;;5005655;28;20049;-66
2022/07/11 02:46:45;;;;;;;9.70;2.80;;;;;;;;;;5006379;28;20123;-67
2022/07/11 02:49:11;;;;;;;9.40;3.15;;;;;;;;;;5010571;28;20050;-66
2022/07/11 02:51:37;;;;;;;9.68;3.15;;;;;;;;;;5011880;28;20056;-66
2022/07/11 02:54:04;;;;;;;8.70;3.40;;;;;;;;;;5002928;28;20049;-65
2022/07/11 02:56:29;;;;;;;12.40;3.28;;;;;;;;;;5008632;28;20384;-66
2022/07/11 02:58:55;;;;;;;7.07;3.00;;;;;;;;;;5013545;28;20056;-65
2022/07/11 03:01:21;;;;;;;8.07;3.47;;;;;;;;;;5009269;28;20119;-66
2022/07/11 03:03:47;;;;;;;9.88;3.53;;;;;;;;;;5009856;28;20061;-66
2022/07/11 03:06:13;;;;;;;10.48;2.90;;;;;;;;;;5004453;28;20053;-66
2022/07/11 03:08:39;;;;;;;8.00;3.10;;;;;;;;;;5008325;28;20080;-67
2022/07/11 03:11:05;;;;;;;8.45;3.10;;;;;;;;;;4999531;28;20111;-67
2022/07/11 03:13:31;;;;;;;9.35;3.08;;;;;;;;;;5003070;28;20096;-65
2022/07/11 03:15:57;;;;;;;11.77;3.45;;;;;;;;;;5008791;28;20045;-66
2022/07/11 03:18:23;;;;;;;8.02;3.00;;;;;;;;;;5009780;28;20447;-65
2022/07/11 03:20:49;;;;;;;16.52;3.20;;;;;;;;;;5009214;28;20112;-66
2022/07/11 03:23:14;;;;;;;10.75;3.05;;;;;;;;;;5018098;28;20060;-66
2022/07/11 03:25:40;;;;;;;4.75;2.65;;;;;;;;;;5006229;28;20049;-65
2022/07/11 03:28:06;;;;;;;14.00;3.10;;;;;;;;;;5016828;28;20072;-69
2022/07/11 03:30:32;;;;;;;6.95;2.90;;;;;;;;;;5014469;28;20034;-65
2022/07/11 03:32:58;;;;;;;6.78;2.95;;;;;;;;;;5018283;28;20450;-65
2022/07/11 03:35:42;;;;;;;7.90;3.08;;;;;;;;;;5015148;28;20056;-64
2022/07/11 03:38:09;;;;;;;8.73;3.30;;;;;;;;;;5014358;28;20488;-66
2022/07/11 03:40:35;;;;;;;11.50;3.30;;;;;;;;;;5012813;28;20065;-66
2022/07/11 03:43:04;;;;;;;6.43;2.90;;;;;;;;;;5005915;28;20483;-65
2022/07/11 03:45:30;;;;;;;8.55;3.13;;;;;;;;;;5001998;28;21827;-67
2022/07/11 03:47:56;;;;;;;5.97;3.17;;;;;;;;;;5005699;28;20058;-65
2022/07/11 03:50:22;;;;;;;7.93;2.92;;;;;;;;;;5009045;28;20115;-67
2022/07/11 03:52:48;;;;;;;14.35;3.40;;;;;;;;;;5010649;28;20049;-67
2022/07/11 03:55:14;;;;;;;7.93;3.25;;;;;;;;;;5010527;28;20067;-65
2022/07/11 03:57:40;;;;;;;12.77;3.05;;;;;;;;;;5011478;28;20042;-65
2022/07/11 04:00:10;;;;;;;8.25;3.42;;;;;;;;;;5012472;28;20092;-67
2022/07/11 04:02:36;;;;;;;9.55;2.95;;;;;;;;;;5009451;28;20045;-66
2022/07/11 04:05:02;;;;;;;8.80;3.28;;;;;;;;;;5006673;28;20103;-66
2022/07/11 04:07:28;;;;;;;11.77;3.67;;;;;;;;;;5008955;28;20046;-66
2022/07/11 04:09:55;;;;;;;7.70;3.05;;;;;;;;;;5009647;28;20092;-66
2022/07/11 04:12:20;;;;;;;8.57;2.95;;;;;;;;;;5009317;28;20058;-65
2022/07/11 04:14:47;;;;;;;10.07;3.00;;;;;;;;;;5005007;28;20055;-66
2022/07/11 04:17:13;;;;;;;12.32;3.45;;;;;;;;;;5013175;28;20053;-66
2022/07/11 04:19:40;;;;;;;14.32;3.63;;;;;;;;;;5011340;28;20038;-65
2022/07/11 04:22:06;;;;;;;12.52;3.42;;;;;;;;;;5014980;28;20103;-68
2022/07/11 04:24:32;;;;;;;16.65;3.78;;;;;;;;;;5007587;28;20479;-66
2022/07/11 04:26:59;;;;;;;7.18;3.08;;;;;;;;;;5010017;28;20510;-64
2022/07/11 04:29:26;;;;;;;8.07;3.75;;;;;;;;;;5012170;28;20057;-65
2022/07/11 04:31:52;;;;;;;10.00;3.80;;;;;;;;;;5007375;28;20138;-69
2022/07/11 04:34:18;;;;;;;14.25;3.83;;;;;;;;;;5010448;28;20192;-66
2022/07/11 04:36:45;;;;;;;16.08;3.65;;;;;;;;;;5026332;28;20073;-64
2022/07/11 04:39:11;;;;;;;6.88;3.15;;;;;;;;;;5005211;28;20046;-71
2022/07/11 04:41:37;;;;;;;10.93;3.40;;;;;;;;;;5011880;28;20046;-66
2022/07/11 04:44:03;;;;;;;7.88;3.70;;;;;;;;;;5003865;28;20045;-68
2022/07/11 04:46:30;;;;;;;12.77;3.80;;;;;;;;;;5003497;28;20616;-70
2022/07/11 04:48:56;;;;;;;10.73;3.83;;;;;;;;;;5010321;28;20054;-68
2022/07/11 04:51:23;;;;;;;8.43;3.80;;;;;;;;;;5011358;28;20136;-70
2022/07/11 04:53:50;;;;;;;18.88;3.95;;;;;;;;;;5007651;28;20037;-68
2022/07/11 04:56:15;;;;;;;8.95;3.67;;;;;;;;;;5009901;28;20434;-68
2022/07/11 04:58:42;;;;;;;12.65;4.05;;;;;;;;;;5012328;28;20132;-67
2022/07/11 05:01:07;;;;;;;9.18;3.83;;;;;;;;;;5015310;28;20543;-69
2022/07/11 05:03:33;;;;;;;14.27;3.90;;;;;;;;;;5004465;28;20104;-71
2022/07/11 05:05:59;;;;;;;10.45;3.50;;;;;;;;;;5004856;28;20061;-67
2022/07/11 05:08:26;;;;;;;11.90;3.42;;;;;;;;;;5014344;28;20053;-71
2022/07/11 05:10:52;;;;;;;12.20;5.00;;;;;;;;;;5026713;28;20046;-70
2022/07/11 05:13:18;;;;;;;7.30;3.42;;;;;;;;;;5009888;28;20141;-71
2022/07/11 05:15:44;;;;;;;9.77;3.42;;;;;;;;;;5010963;28;20473;-69
2022/07/11 05:18:10;;;;;;;9.20;3.22;;;;;;;;;;5015823;28;20061;-70
2022/07/11 05:20:37;;;;;;;13.65;3.30;;;;;;;;;;5014284;28;20166;-68
2022/07/11 05:23:03;;;;;;;9.00;3.35;;;;;;;;;;5009683;28;20514;-73
2022/07/11 05:25:29;;;;;;;12.52;3.50;;;;;;;;;;5001455;28;20048;-73
2022/07/11 05:27:55;;;;;;;5.55;2.97;;;;;;;;;;5004339;28;20050;-74
2022/07/11 05:30:21;;;;;;;10.70;3.20;;;;;;;;;;5018414;28;20492;-72
2022/07/11 05:32:46;;;;;;;9.18;3.25;;;;;;;;;;5012997;28;20058;-73
2022/07/11 05:35:13;;;;;;;11.23;3.20;;;;;;;;;;5002704;28;20053;-72
2022/07/11 05:37:39;;;;;;;6.57;2.78;;;;;;;;;;5009573;28;20520;-73
2022/07/11 05:40:05;;;;;;;7.70;2.88;;;;;;;;;;5006689;28;20052;-77
2022/07/11 05:42:32;;;;;;;10.48;2.85;;;;;;;;;;5005261;28;20072;-75
2022/07/11 05:44:58;;;;;;;11.80;3.20;;;;;;;;;;5008414;28;20519;-72
2022/07/11 05:47:23;;;;;;;6.57;2.70;;;;;;;;;;5008060;28;20136;-72
2022/07/11 05:49:49;;;;;;;8.85;2.80;;;;;;;;;;5007694;28;20452;-71
2022/07/11 05:52:15;;;;;;;11.57;2.97;;;;;;;;;;5007342;28;20073;-70
2022/07/11 05:54:41;;;;;;;11.82;2.95;;;;;;;;;;5009050;28;20041;-69
2022/07/11 05:57:07;;;;;;;8.40;2.92;;;;;;;;;;5023107;28;20056;-69
2022/07/11 05:59:35;;;;;;;7.68;3.30;;;;;;;;;;5009073;28;20419;-68
2022/07/11 06:02:02;;;;;;;11.93;2.88;;;;;;;;;;5005136;28;20038;-72
2022/07/11 06:04:29;;;;;;;8.35;3.35;;;;;;;;;;5004966;28;20046;-68
2022/07/11 06:06:54;;;;;;;11.35;3.10;;;;;;;;;;5005023;28;20551;-70
2022/07/11 06:09:20;;;;;;;12.45;2.70;;;;;;;;;;5007152;28;20080;-70
2022/07/11 06:11:46;;;;;;;4.85;2.70;;;;;;;;;;5006881;28;20128;-69
2022/07/11 06:14:12;;;;;;;5.82;2.63;;;;;;;;;;5007533;28;20111;-70
2022/07/11 06:16:38;;;;;;;7.32;3.58;;;;;;;;;;5010253;28;20050;-71
2022/07/11 06:19:04;;;;;;;12.82;3.10;;;;;;;;;;5003992;28;20192;-69
2022/07/11 06:21:30;;;;;;;11.18;3.33;;;;;;;;;;5002186;28;20757;-68
2022/07/11 06:23:56;;;;;;;11.93;3.17;;;;;;;;;;4992774;28;20053;-70
2022/07/11 06:26:22;;;;;;;7.13;2.85;;;;;;;;;;4999199;28;20407;-68
2022/07/11 06:28:48;;;;;;;8.55;2.95;;;;;;;;;;4988798;28;20054;-69
2022/07/11 06:31:14;;;;;;;8.35;3.20;;;;;;;;;;5002229;28;20056;-69
2022/07/11 06:33:40;;;;;;;8.15;3.60;;;;;;;;;;4999056;28;20077;-70
2022/07/11 06:36:06;;;;;;;12.27;4.00;;;;;;;;;;4992436;28;20102;-71
2022/07/11 06:38:33;;;;;;;12.07;3.25;;;;;;;;;;4991280;28;20508;-70
2022/07/11 06:40:59;;;;;;;10.68;3.47;;;;;;;;;;4998124;28;20042;-68
2022/07/11 06:43:25;;;;;;;4.55;2.63;;;;;;;;;;4992296;28;20535;-71
2022/07/11 06:45:51;;;;;;;7.63;2.67;;;;;;;;;;4992075;28;20050;-68
2022/07/11 06:48:17;;;;;;;7.82;2.47;;;;;;;;;;4998989;28;20058;-71
2022/07/11 06:50:43;;;;;;;11.85;2.85;;;;;;;;;;5009989;28;20041;-72
2022/07/11 06:53:09;;;;;;;11.90;2.83;;;;;;;;;;4998240;28;20048;-69
2022/07/11 06:55:35;;;;;;;7.95;3.20;;;;;;;;;;5007583;28;20314;-70
2022/07/11 06:58:01;;;;;;;6.65;2.85;;;;;;;;;;5001850;28;20060;-71
2022/07/11 07:00:30;;;;;;;17.73;2.92;;;;;;;;;;5006610;28;20037;-71
2022/07/11 07:02:56;;;;;;;12.48;2.92;;;;;;;;;;5000073;28;20052;-70
2022/07/11 07:05:25;;;;;;;10.80;2.53;;;;;;;;;;5003287;28;20050;-69
2022/07/11 07:07:52;;;;;;;10.65;3.08;;;;;;;;;;5004810;28;20076;-69
2022/07/11 07:10:19;;;;;;;7.03;3.28;;;;;;;;;;5007678;28;20046;-70
2022/07/11 07:12:45;;;;;;;6.60;2.80;;;;;;;;;;5008460;28;20365;-70
2022/07/11 07:15:11;;;;;;;9.15;2.60;;;;;;;;;;5008280;28;20046;-70
2022/07/11 07:17:38;;;;;;;10.40;2.60;;;;;;;;;;5022749;28;20125;-72
2022/07/11 07:20:08;;;;;;;8.65;2.75;;;;;;;;;;5021109;28;20046;-69
2022/07/11 07:22:35;;;;;;;7.50;2.88;;;;;;;;;;5004334;28;20045;-70
2022/07/11 07:25:01;;;;;;;11.43;2.80;;;;;;;;;;4996103;28;20061;-69
2022/07/11 07:27:27;;;;;;;13.57;2.85;;;;;;;;;;5006719;28;20096;-71
2022/07/11 07:29:54;;;;;;;17.17;2.80;;;;;;;;;;5006260;28;20354;-70
2022/07/11 07:32:20;;;;;;;11.43;3.08;;;;;;;;;;5003202;28;20046;-69
2022/07/11 07:34:46;;;;;;;13.27;2.80;;;;;;;;;;4987111;28;20050;-68
2022/07/11 07:37:12;;;;;;;12.55;2.72;;;;;;;;;;5003117;28;20121;-68
2022/07/11 07:39:38;;;;;;;14.25;3.22;;;;;;;;;;5003699;28;20121;-73
2022/07/11 07:42:04;;;;;;;8.63;3.35;;;;;;;;;;5007410;28;20666;-73
2022/07/11 07:44:30;;;;;;;10.23;2.80;;;;;;;;;;5007056;28;20318;-73
2022/07/11 07:46:56;;;;;;;9.02;3.00;;;;;;;;;;5007722;28;20487;-71
2022/07/11 07:49:22;;;;;;;10.98;3.15;;;;;;;;;;5005898;28;20073;-71
2022/07/11 07:51:48;;;;;;;11.10;2.83;;;;;;;;;;5004714;28;20045;-74
2022/07/11 07:54:14;;;;;;;10.57;2.47;;;;;;;;;;5007304;28;20083;-75
2022/07/11 07:56:39;;;;;;;6.82;2.33;;;;;;;;;;5022133;28;20458;-68
2022/07/11 07:59:06;;;;;;;9.32;2.83;;;;;;;;;;5009578;28;20488;-68
2022/07/11 08:01:34;;;;;;;10.70;2.85;;;;;;;;;;5010749;28;20057;-65
2022/07/11 08:04:04;;;;;;;6.63;2.45;;;;;;;;;;5013605;28;20050;-67
2022/07/11 08:06:31;;;;;;;7.65;3.05;;;;;;;;;;5005277;28;20100;-66
2022/07/11 08:08:57;;;;;;;11.52;3.05;;;;;;;;;;5011617;28;20050;-65
2022/07/11 08:11:24;;;;;;;8.52;2.75;;;;;;;;;;5018469;28;20071;-68
2022/07/11 08:13:50;;;;;;;11.55;2.53;;;;;;;;;;5008808;28;20551;-63
2022/07/11 08:16:16;;;;;;;8.02;3.20;;;;;;;;;;5004871;28;20129;-66
2022/07/11 08:18:42;;;;;;;9.20;2.40;;;;;;;;;;5000641;28;20046;-64
2022/07/11 08:21:09;;;;;;;9.15;2.72;;;;;;;;;;5006581;28;20108;-69
2022/07/11 08:23:35;;;;;;;9.07;2.83;;;;;;;;;;5005622;28;20384;-67
2022/07/11 08:26:02;;;;;;;5.45;2.58;;;;;;;;;;5008749;28;20049;-65
2022/07/11 08:28:28;;;;;;;9.07;2.58;;;;;;;;;;5008459;28;20559;-75
2022/07/11 08:30:53;;;;;;;11.60;3.13;;;;;;;;;;5004518;28;20081;-79
2022/07/11 08:33:19;;;;;;;11.07;2.80;;;;;;;;;;5009082;28;20073;-76
2022/07/11 08:35:45;;;;;;;8.07;2.75;;;;;;;;;;5005328;28;20137;-70
2022/07/11 08:38:12;;;;;;;10.32;2.97;;;;;;;;;;5003291;28;20153;-67
2022/07/11 08:40:41;;;;;;;10.70;2.60;;;;;;;;;;5006800;28;20046;-63
2022/07/11 08:43:15;;;;;;;6.00;2.40;;;;;;;;;;5006080;28;20052;-65
2022/07/11 08:45:41;;;;;;;6.70;2.65;;;;;;;;;;5010908;28;20052;-64
2022/07/11 08:48:11;;;;;;;6.70;3.05;;;;;;;;;;5005794;28;20076;-67
2022/07/11 08:50:37;;;;;;;10.40;3.00;;;;;;;;;;5010957;28;20045;-69
2022/07/11 08:53:04;;;;;;;10.88;2.65;;;;;;;;;;5009847;28;20042;-69
2022/07/11 08:55:30;;;;;;;10.65;2.90;;;;;;;;;;5002439;28;20230;-71
2022/07/11 08:57:56;;;;;;;9.65;2.90;;;;;;;;;;5010231;28;20121;-71
2022/07/11 09:00:23;;;;;;;6.28;2.58;;;;;;;;;;5006248;28;20657;-63
2022/07/11 09:02:49;;;;;;;9.20;2.70;;;;;;;;;;5007155;28;20468;-66
2022/07/11 09:05:16;;;;;;;11.05;3.00;;;;;;;;;;5006714;28;20531;-67
2022/07/11 09:07:47;;;;;;;6.72;2.90;;;;;;;;;;5007802;28;20081;-70
2022/07/11 09:10:14;;;;;;;9.40;3.25;;;;;;;;;;5004119;28;20129;-68
2022/07/11 09:13:06;;;;;;;8.45;2.63;;;;;;;;;;5007046;28;20358;-69
2022/07/11 09:15:43;;;;;;;15.73;2.63;;;;;;;;;;5002616;28;20046;-71
2022/07/11 09:18:30;;;;;;;8.85;2.60;;;;;;;;;;5001036;28;20385;-69
2022/07/11 09:26:39;;;;;;;11.75;2.83;;;;;;;;;;5010379;28;20045;-63
2022/07/11 09:29:06;;;;;;;19.58;3.50;;;;;;;;;;5010406;28;20072;-66
2022/07/11 09:31:34;;;;;;;16.50;3.30;;;;;;;;;;5011803;28;20045;-67
2022/07/11 09:34:01;;;;;;;11.20;2.63;;;;;;;;;;5009967;28;20423;-67
2022/07/11 09:36:46;;;;;;;10.07;3.53;;;;;;;;;;5017253;28;20134;-70
2022/07/11 09:39:17;;;;;;;9.25;3.30;;;;;;;;;;5022076;28;20048;-66
2022/07/11 09:41:49;;;;;;;12.73;3.00;;;;;;;;;;5000303;28;20162;-66
2022/07/11 09:44:20;;;;;;;13.23;3.45;;;;;;;;;;5011767;28;20060;-66
2022/07/11 09:46:50;;;;;;;15.52;2.88;;;;;;;;;;5014083;28;20406;-69
2022/07/11 09:49:28;;;;;;;9.88;2.70;;;;;;;;;;5009311;28;20046;-69
2022/07/11 09:51:56;;;;;;;14.27;2.78;;;;;;;;;;5008475;28;20050;-69
2022/07/11 09:54:22;;;;;;;8.75;2.72;;;;;;;;;;5012035;28;20065;-78
2022/07/11 09:56:51;;;;;;;6.30;2.35;;;;;;;;;;5003494;28;20054;-77
2022/07/11 09:59:18;;;;;;;13.90;2.67;;;;;;;;;;5017681;28;20068;-76
2022/07/11 10:01:45;;;;;;;9.88;2.80;;;;;;;;;;5006567;28;20483;-75
2022/07/11 10:04:11;;;;;;;9.13;2.63;;;;;;;;;;5000440;28;20128;-76
2022/07/11 10:06:41;;;;;;;14.18;2.78;;;;;;;;;;5007457;28;20550;-78
2022/07/11 10:09:07;;;;;;;7.80;2.40;;;;;;;;;;5012795;28;20503;-78
2022/07/11 10:11:34;;;;;;;11.35;2.80;;;;;;;;;;5013459;28;20038;-76
2022/07/11 10:14:00;;;;;;;9.02;2.58;;;;;;;;;;5011163;28;20049;-76
2022/07/11 10:16:45;;;;;;;10.10;2.63;;;;;;;;;;5009397;28;20042;-78
2022/07/11 10:19:22;;;;;;;8.52;2.42;;;;;;;;;;5010734;28;20050;-76
2022/07/11 10:22:06;;;;;;;8.43;2.70;;;;;;;;;;5010007;28;20132;-73
2022/07/11 10:24:58;;;;;;;6.45;2.20;;;;;;;;;;5010462;28;20062;-75
2022/07/11 10:27:33;;;;;;;6.78;2.42;;;;;;;;;;5014770;28;20045;-72
2022/07/11 10:30:01;;;;;;;6.50;2.47;;;;;;;;;;5007998;28;20073;-71
2022/07/11 10:32:27;;;;;;;4.97;2.40;;;;;;;;;;5009426;28;20315;-72
2022/07/11 10:35:11;;;;;;;10.55;2.72;;;;;;;;;;5022688;28;20053;-73
2022/07/11 10:37:54;;;;;;;7.18;2.40;;;;;;;;;;5005558;28;20587;-71
2022/07/11 10:40:49;;;;;;;6.45;2.33;;;;;;;;;;5004040;28;20045;-79
2022/07/11 10:43:21;;;;;;;6.03;2.40;;;;;;;;;;5016859;28;20072;-77
2022/07/11 10:46:03;;;;;;;7.10;2.35;;;;;;;;;;5008676;28;20035;-79
2022/07/11 10:48:32;;;;;;;8.43;2.40;;;;;;;;;;5014396;28;20121;-80
2022/07/11 10:51:01;;;;;;;8.20;2.78;;;;;;;;;;5035972;28;20140;-79
2022/07/11 10:53:33;;;;;;;8.57;2.50;;;;;;;;;;5027051;28;20037;-79
2022/07/11 10:56:06;;;;;;;4.65;2.13;;;;;;;;;;5037038;28;20073;-79
2022/07/11 10:58:32;;;;;;;11.70;2.53;;;;;;;;;;5025725;28;20053;-80
2022/07/11 11:01:12;;;;;;;9.13;2.70;;;;;;;;;;5016607;28;20049;-80
2022/07/11 11:03:42;;;;;;;11.95;3.42;;;;;;;;;;4996935;28;20126;-79
2022/07/11 11:06:09;;;;;;;10.38;3.45;;;;;;;;;;5005478;28;20058;-75
2022/07/11 11:08:43;;;;;;;11.48;2.63;;;;;;;;;;5020701;28;20046;-78
2022/07/11 11:11:09;;;;;;;;;;;;;;;;;;5013116;28;20097;-77
2022/07/11 11:13:36;;;;;;;6.22;2.33;;;;;;;;;;5025424;28;19968;-80
2022/07/11 11:16:17;;;;;;;6.88;2.45;;;;;;;;;;5021311;28;20054;-79
2022/07/11 11:18:44;;;;;;;8.10;2.35;;;;;;;;;;5019735;28;20070;-80
2022/07/11 11:21:20;;;;;;;6.60;2.30;;;;;;;;;;5001698;28;20098;-80
2022/07/11 11:24:08;;;;;;;6.15;2.10;;;;;;;;;;5014831;28;20037;-79
2022/07/11 11:26:46;;;;;;;8.55;2.20;;;;;;;;;;5021782;28;20046;-80
2022/07/11 11:29:18;;;;;;;5.47;2.13;;;;;;;;;;5024317;28;20439;-82
2022/07/11 11:31:49;;;;;;;8.10;2.38;;;;;;;;;;5017472;28;20084;-78
2022/07/11 11:34:15;;;;;;;4.65;2.17;;;;;;;;;;5022339;28;20080;-78
2022/07/11 11:36:41;;;;;;;7.32;2.17;;;;;;;;;;5026753;28;20042;-79
2022/07/11 11:39:08;;;;;;;4.25;1.85;;;;;;;;;;5027934;28;20366;-82
2022/07/11 11:41:34;;;;;;;9.23;2.22;;;;;;;;;;5013174;28;20058;-81
2022/07/11 11:44:01;;;;;;;7.13;2.10;;;;;;;;;;5026299;28;20174;-77
2022/07/11 11:46:29;;;;;;;4.68;2.05;;;;;;;;;;5023407;28;20062;-77
2022/07/11 11:48:59;;;;;;;10.20;2.30;;;;;;;;;;5022968;28;20109;-77
2022/07/11 11:51:28;;;;;;;6.28;2.35;;;;;;;;;;5015454;28;20145;-76
2022/07/11 11:53:56;;;;;;;7.88;2.00;;;;;;;;;;5007109;28;20049;-79
2022/07/11 11:56:28;;;;;;;8.65;2.08;;;;;;;;;;5031704;28;20096;-81
2022/07/11 11:59:15;;;;;;;3.30;1.90;;;;;;;;;;5037872;28;20046;-79
2022/07/11 12:01:47;;;;;;;4.18;1.80;;;;;;;;;;5036461;28;20626;-81
2022/07/11 12:04:16;;;;;;;5.97;1.75;;;;;;;;;;5033595;28;20044;-77
2022/07/11 12:06:46;;;;;;;6.07;1.90;;;;;;;;;;5043721;28;20072;-80
2022/07/11 12:09:15;;;;;;;3.42;1.77;;;;;;;;;;5030702;28;20057;-82
2022/07/11 12:11:46;;;;;;;3.53;1.88;;;;;;;;;;5029869;28;20042;-80
2022/07/11 12:14:14;;;;;;;4.47;1.67;;;;;;;;;;5029186;28;20125;-81
2022/07/11 12:16:46;;;;;;;6.85;1.98;;;;;;;;;;5031465;28;20100;-77
2022/07/11 12:19:23;;;;;;;6.93;2.10;;;;;;;;;;5030517;28;20059;-79
2022/07/11 12:21:51;;;;;;;3.17;1.80;;;;;;;;;;5034609;28;20070;-80
2022/07/11 12:24:20;;;;;;;5.57;1.95;;;;;;;;;;5033881;28;20053;-81
2022/07/11 12:26:47;;;;;;;4.80;1.98;;;;;;;;;;5038366;28;20048;-83
2022/07/11 12:29:19;;;;;;;7.57;1.80;;;;;;;;;;5030061;28;20062;-81
2022/07/11 12:31:45;;;;;;;4.72;1.67;;;;;;;;;;5031646;28;20083;-82
2022/07/11 12:34:11;;;;;;;6.40;1.90;;;;;;;;;;5033785;28;20046;-82
2022/07/11 12:36:37;;;;;;;7.75;1.92;;;;;;;;;;5032432;28;20050;-80
2022/07/11 12:39:04;;;;;;;6.70;2.42;;;;;;;;;;5033623;28;20061;-79
2022/07/11 12:41:34;;;;;;;5.68;2.30;;;;;;;;;;5065893;28;20234;-81
2022/07/11 12:46:48;;;;;;;6.35;2.08;;;;;;;;;;5040176;28;20042;-80
2022/07/11 12:49:15;;;;;;;6.63;2.05;;;;;;;;;;5050493;28;20168;-79
2022/07/11 12:51:44;;;;;;;3.85;1.80;;;;;;;;;;5037297;28;20052;-79
2022/07/11 12:54:14;;;;;;;3.88;2.20;;;;;;;;;;5023604;28;20093;-80
2022/07/11 12:56:53;;;;;;;5.53;1.90;;;;;;;;;;5016012;28;20031;-80
2022/07/11 12:59:22;;;;;;;5.53;1.65;;;;;;;;;;5022352;28;20093;-79
2022/07/11 13:02:09;;;;;;;4.70;1.70;;;;;;;;;;5029204;28;20037;-82
2022/07/11 13:04:42;;;;;;;7.85;2.10;;;;;;;;;;5032601;28;20042;-80
2022/07/11 13:10:26;;;;;;;10.55;2.17;;;;;;;;;;5032987;28;20060;-82
2022/07/11 13:12:55;;;;;;;5.88;1.90;;;;;;;;;;5032398;28;20054;-80
2022/07/11 13:15:22;;;;;;;5.55;1.90;;;;;;;;;;5031011;28;20087;-78
2022/07/11 13:17:54;;;;;;;5.57;2.03;;;;;;;;;;5018517;28;20094;-79
2022/07/11 13:20:26;;;;;;;9.70;2.30;;;;;;;;;;5020768;28;20033;-82
2022/07/11 13:22:52;;;;;;;5.78;2.30;;;;;;;;;;5037689;28;20072;-83
2022/07/11 13:25:20;;;;;;;8.93;2.20;;;;;;;;;;5036701;28;20056;-81
2022/07/11 13:27:51;;;;;;;4.68;2.10;;;;;;;;;;5026882;28;20109;-81
2022/07/11 13:30:20;;;;;;;6.82;2.30;;;;;;;;;;5160793;23;20154;-78
2022/07/11 13:33:07;;;;;;;8.73;2.78;;;;;;;;;;4931618;29;20072;-81
2022/07/11 13:35:33;;;;;;;7.63;2.65;;;;;;;;;;5016696;23;20062;-81
2022/07/11 13:40:34;;;;;;;6.00;2.50;;;;;;;;;;4955673;28;20124;-82
2022/07/11 13:45:36;;;;;;;5.63;2.40;;;;;;;;;;5088114;23;20045;-81
2022/07/11 13:48:02;;;;;;;5.68;2.70;;;;;;;;;;5033904;28;20037;-78
2022/07/11 13:50:28;;;;;;;6.22;2.30;;;;;;;;;;5034317;28;20044;-79
2022/07/11 13:52:54;;;;;;;7.07;2.95;;;;;;;;;;5030795;28;20042;-83
2022/07/11 13:55:22;;;;;;;7.13;2.80;;;;;;;;;;5033888;28;20089;-80
2022/07/11 13:57:51;;;;;;;6.95;2.60;;;;;;;;;;5027144;28;20041;-82
2022/07/11 14:00:18;;;;;;;9.55;2.60;;;;;;;;;;5017063;28;20086;-82
2022/07/11 14:02:44;;;;;;;6.45;2.35;;;;;;;;;;5025201;28;20046;-80
2022/07/11 14:05:10;;;;;;;9.88;2.47;;;;;;;;;;5014911;28;20034;-82
2022/07/11 14:08:08;;;;;;;10.48;2.70;;;;;;;;;;5230576;23;20343;31
2022/07/11 14:13:23;;;;;;;6.55;2.50;;;;;;;;;;5088683;23;20048;-79
2022/07/11 14:15:50;;;;;;;10.00;2.28;;;;;;;;;;4935395;29;20032;-80
2022/07/11 14:18:16;;;;;;;8.15;1.98;;;;;;;;;;4931841;29;20044;-81
2022/07/11 14:20:41;;;;;;;6.05;2.30;;;;;;;;;;4924468;29;20067;-79
2022/07/11 14:23:07;;;;;;;3.53;1.70;;;;;;;;;;4909180;29;20063;-79
2022/07/11 14:25:33;;;;;;;7.25;1.95;;;;;;;;;;4928126;29;20490;-80
2022/07/11 14:28:01;;;;;;;6.57;1.70;;;;;;;;;;4928297;29;20036;-80
2022/07/11 14:30:28;;;;;;;8.88;1.52;;;;;;;;;;4937035;29;20052;-80
2022/07/11 14:32:54;;;;;;;10.75;1.98;;;;;;;;;;4929058;29;20103;-83
2022/07/11 14:35:20;;;;;;;4.28;1.52;;;;;;;;;;4930339;29;20044;-82
2022/07/11 14:37:46;;;;;;;10.40;1.88;;;;;;;;;;4927014;29;20055;-79
2022/07/11 14:40:12;;;;;;;4.80;1.55;;;;;;;;;;4922828;29;20040;-81
2022/07/11 14:42:38;;;;;;;5.07;1.67;;;;;;;;;;4925614;29;20048;-82
2022/07/11 14:45:06;;;;;;;6.45;1.65;;;;;;;;;;4936785;29;20052;-82
2022/07/11 14:47:32;;;;;;;7.35;1.50;;;;;;;;;;4926765;29;20071;-71
2022/07/11 14:49:58;;;;;;;6.95;1.88;;;;;;;;;;4922612;29;20052;-79
2022/07/11 14:52:24;;;;;;;8.25;1.60;;;;;;;;;;4923214;29;20059;-79
2022/07/11 14:54:50;;;;;;;5.60;1.70;;;;;;;;;;4924027;29;20041;-80
2022/07/11 14:57:15;;;;;;;5.53;1.25;;;;;;;;;;4926259;29;20153;-80
2022/07/11 14:59:42;;;;;;;11.82;2.28;;;;;;;;;;4919546;29;20048;-79
2022/07/11 15:02:09;;;;;;;5.88;1.98;;;;;;;;;;4922845;29;20048;-80
2022/07/11 15:04:34;;;;;;;6.80;1.90;;;;;;;;;;4925378;29;20147;-81
2022/07/11 15:12:30;;;;;;;6.75;1.52;;;;;;;;;;4941719;29;20064;-81
2022/07/11 15:14:55;;;;;;;6.43;1.42;;;;;;;;;;4926924;29;20135;-79
2022/07/11 15:17:22;;;;;;;4.85;1.55;;;;;;;;;;4907902;29;20108;-78